createdAt,value
2022-10-17T00:00:03.765Z,98.19
2022-10-17T00:01:03.861Z,98.09
2022-10-17T00:02:03.744Z,98.50
2022-10-17T00:03:03.752Z,98.96
2022-10-17T00:04:03.713Z,98.05
2022-10-17T00:05:03.712Z,97.74
2022-10-17T00:06:03.705Z,97.53
2022-10-17T00:07:03.712Z,97.60
2022-10-17T00:08:03.698Z,97.80
2022-10-17T00:09:03.678Z,97.69
2022-10-17T00:10:03.646Z,97.69
2022-10-17T00:11:11.394Z,97.69
2022-10-17T00:12:13.733Z,97.60
2022-10-17T00:13:11.299Z,97.60
2022-10-17T00:14:11.263Z,97.08
2022-10-17T00:16:14.072Z,97.08
2022-10-17T00:17:14.065Z,97.08
2022-10-17T00:18:13.989Z,97.19
2022-10-17T00:19:14.083Z,97.60
2022-10-17T00:20:13.939Z,97.60
2022-10-17T00:21:13.910Z,97.89
2022-10-17T00:22:13.899Z,97.60
2022-10-17T00:23:13.900Z,98.00
2022-10-17T00:24:13.880Z,98.61
2022-10-17T00:25:13.891Z,98.30
2022-10-17T00:26:13.850Z,98.41
2022-10-17T00:27:13.835Z,98.81
2022-10-17T00:28:13.844Z,98.30
2022-10-17T00:29:13.818Z,98.50
2022-10-17T00:30:13.820Z,99.02
2022-10-17T00:31:13.798Z,98.77
2022-10-17T00:32:13.779Z,99.68
2022-10-17T00:33:13.806Z,99.58
2022-10-17T00:34:13.752Z,99.38
2022-10-17T00:35:13.763Z,99.58
2022-10-17T00:36:13.765Z,99.58
2022-10-17T00:37:13.724Z,99.27
2022-10-17T00:38:13.716Z,99.48
2022-10-17T00:39:13.716Z,99.13
2022-10-17T00:40:13.695Z,99.53
2022-10-17T00:41:23.730Z,99.53
2022-10-17T00:42:21.360Z,99.43
2022-10-17T00:43:21.372Z,99.53
2022-10-17T00:44:13.718Z,99.53
2022-10-17T00:45:13.715Z,99.53
2022-10-17T00:46:13.665Z,99.53
2022-10-17T00:47:13.749Z,98.97
2022-10-17T00:48:13.604Z,98.92
2022-10-17T00:49:13.611Z,99.07
2022-10-17T00:50:13.585Z,99.17
2022-10-17T00:51:13.616Z,98.86
2022-10-17T00:52:13.562Z,99.07
2022-10-17T00:53:13.551Z,99.73
2022-10-17T00:54:13.560Z,99.63
2022-10-17T00:55:13.531Z,99.32
2022-10-17T00:56:13.529Z,99.57
2022-10-17T00:57:13.519Z,99.93
2022-10-17T00:58:13.508Z,99.77
2022-10-17T00:59:13.557Z,99.99
2022-10-17T01:00:13.481Z,99.83
2022-10-17T01:01:13.533Z,99.99
2022-10-17T01:02:13.464Z,99.99
2022-10-17T01:03:13.433Z,99.98
2022-10-17T01:04:13.433Z,99.99
2022-10-17T01:05:13.445Z,99.99
2022-10-17T01:06:13.405Z,99.99
2022-10-17T01:07:13.403Z,99.99
2022-10-17T01:08:13.389Z,99.99
2022-10-17T01:09:13.393Z,99.99
2022-10-17T01:10:13.451Z,99.99
2022-10-17T01:11:13.355Z,99.99
2022-10-17T01:12:13.344Z,99.99
2022-10-17T01:13:13.372Z,99.99
2022-10-17T01:14:13.323Z,99.99
2022-10-17T01:15:13.305Z,99.99
2022-10-17T01:16:13.301Z,99.99
2022-10-17T01:17:13.291Z,99.99
2022-10-17T01:18:13.268Z,99.99
2022-10-17T01:19:13.320Z,99.99
2022-10-17T01:20:13.270Z,99.99
2022-10-17T01:21:13.249Z,99.99
2022-10-17T01:22:13.229Z,99.99
2022-10-17T01:23:13.218Z,99.99
2022-10-17T01:24:13.223Z,99.99
2022-10-17T01:25:13.206Z,99.99
2022-10-17T01:26:13.188Z,99.99
2022-10-17T01:27:13.171Z,99.99
2022-10-17T01:28:13.163Z,99.99
2022-10-17T01:29:13.165Z,99.99
2022-10-17T01:30:13.133Z,99.99
2022-10-17T01:31:13.136Z,99.99
2022-10-17T01:32:13.157Z,99.99
2022-10-17T01:33:13.108Z,99.99
2022-10-17T01:34:13.103Z,99.99
2022-10-17T01:35:13.090Z,99.99
2022-10-17T01:36:13.074Z,99.99
2022-10-17T01:37:13.078Z,99.99
2022-10-17T01:38:13.051Z,99.99
2022-10-17T01:39:13.040Z,99.99
2022-10-17T01:40:13.047Z,99.99
2022-10-17T01:41:13.017Z,99.99
2022-10-17T01:42:13.012Z,99.99
2022-10-17T01:43:12.995Z,99.99
2022-10-17T01:44:12.993Z,99.99
2022-10-17T01:45:13.021Z,99.99
2022-10-17T01:46:13.000Z,99.99
2022-10-17T01:47:12.955Z,99.99
2022-10-17T01:48:12.939Z,99.99
2022-10-17T01:49:12.936Z,99.99
2022-10-17T01:50:12.921Z,99.99
2022-10-17T01:51:12.926Z,99.99
2022-10-17T01:52:12.938Z,99.99
2022-10-17T01:53:23.795Z,99.99
2022-10-17T01:54:12.905Z,99.99
2022-10-17T01:55:12.917Z,99.99
2022-10-17T01:56:12.991Z,99.99
2022-10-17T01:57:12.860Z,99.99
2022-10-17T01:58:12.866Z,99.99
2022-10-17T01:59:12.819Z,99.99
2022-10-17T02:00:12.862Z,99.99
2022-10-17T02:01:12.945Z,99.99
2022-10-17T02:02:12.793Z,99.99
2022-10-17T02:03:12.852Z,99.99
2022-10-17T02:04:12.787Z,99.99
2022-10-17T02:05:12.757Z,99.99
2022-10-17T02:06:12.750Z,99.99
2022-10-17T02:07:12.745Z,99.99
2022-10-17T02:08:12.741Z,99.99
2022-10-17T02:09:12.748Z,99.99
2022-10-17T02:10:12.718Z,99.99
2022-10-17T02:11:12.715Z,99.99
2022-10-17T02:12:12.692Z,99.99
2022-10-17T02:13:12.680Z,99.99
2022-10-17T02:15:12.666Z,99.99
2022-10-17T02:16:12.673Z,99.99
2022-10-17T02:17:12.627Z,99.99
2022-10-17T02:18:12.641Z,99.99
2022-10-17T02:19:12.607Z,99.99
2022-10-17T02:20:12.605Z,99.99
2022-10-17T02:21:12.595Z,99.99
2022-10-17T02:22:12.610Z,99.99
2022-10-17T02:23:12.598Z,99.99
2022-10-17T02:24:12.558Z,99.99
2022-10-17T02:25:12.551Z,99.99
2022-10-17T02:26:12.531Z,99.99
2022-10-17T02:27:12.543Z,99.99
2022-10-17T02:28:12.566Z,99.99
2022-10-17T02:29:12.500Z,99.99
2022-10-17T02:30:12.483Z,99.99
2022-10-17T02:31:12.481Z,99.99
2022-10-17T02:32:12.544Z,99.99
2022-10-17T02:33:12.455Z,99.99
2022-10-17T02:34:12.453Z,99.99
2022-10-17T02:35:12.481Z,99.99
2022-10-17T02:36:12.418Z,99.99
2022-10-17T02:37:12.405Z,99.99
2022-10-17T02:38:12.421Z,99.99
2022-10-17T02:39:12.389Z,99.99
2022-10-17T02:40:12.382Z,99.99
2022-10-17T02:41:12.389Z,99.99
2022-10-17T02:42:12.391Z,99.99
2022-10-17T02:43:12.346Z,99.99
2022-10-17T02:44:12.330Z,99.99
2022-10-17T02:45:12.318Z,99.99
2022-10-17T02:46:12.311Z,99.99
2022-10-17T02:47:12.302Z,99.99
2022-10-17T02:48:12.325Z,99.99
2022-10-17T02:49:12.272Z,99.99
2022-10-17T02:50:12.279Z,99.99
2022-10-17T02:51:12.266Z,99.99
2022-10-17T02:52:12.269Z,99.99
2022-10-17T02:53:12.253Z,99.99
2022-10-17T02:54:12.254Z,99.99
2022-10-17T02:55:12.217Z,99.99
2022-10-17T02:56:12.203Z,99.99
2022-10-17T02:57:12.236Z,99.99
2022-10-17T02:58:12.184Z,99.99
2022-10-17T02:59:22.332Z,99.99
2022-10-17T03:00:22.318Z,99.99
2022-10-17T03:01:20.923Z,99.99
2022-10-17T03:02:20.828Z,99.99
2022-10-17T03:03:12.237Z,99.99
2022-10-17T03:04:12.207Z,99.99
2022-10-17T03:05:12.147Z,99.99
2022-10-17T03:06:12.118Z,99.99
2022-10-17T03:07:12.081Z,99.99
2022-10-17T03:08:12.079Z,99.99
2022-10-17T03:09:12.087Z,99.99
2022-10-17T03:10:12.065Z,99.99
2022-10-17T03:11:12.054Z,99.99
2022-10-17T03:12:12.072Z,99.99
2022-10-17T03:13:12.038Z,99.99
2022-10-17T03:14:12.003Z,99.99
2022-10-17T03:15:12.027Z,99.99
2022-10-17T03:16:11.983Z,99.99
2022-10-17T03:17:11.969Z,99.99
2022-10-17T03:18:12.006Z,99.99
2022-10-17T03:19:11.971Z,99.99
2022-10-17T03:20:11.929Z,99.99
2022-10-17T03:21:11.943Z,99.99
2022-10-17T03:22:11.968Z,99.99
2022-10-17T03:23:11.904Z,99.99
2022-10-17T03:24:11.900Z,99.99
2022-10-17T03:25:11.889Z,99.99
2022-10-17T03:26:11.899Z,99.99
2022-10-17T03:27:11.867Z,99.99
2022-10-17T03:28:11.879Z,99.99
2022-10-17T03:29:11.891Z,99.99
2022-10-17T03:30:11.839Z,99.99
2022-10-17T03:31:21.895Z,99.99
2022-10-17T03:32:11.929Z,99.99
2022-10-17T03:33:11.909Z,99.99
2022-10-17T03:34:11.865Z,99.99
2022-10-17T03:35:14.853Z,99.99
2022-10-17T03:36:11.773Z,99.99
2022-10-17T03:37:11.767Z,99.99
2022-10-17T03:38:11.742Z,99.99
2022-10-17T03:39:11.772Z,99.99
2022-10-17T03:40:11.728Z,99.99
2022-10-17T03:41:11.713Z,99.99
2022-10-17T03:42:11.702Z,99.99
2022-10-17T03:43:11.683Z,99.99
2022-10-17T03:44:11.683Z,99.99
2022-10-17T03:45:11.689Z,99.99
2022-10-17T03:46:11.684Z,99.99
2022-10-17T03:47:14.079Z,99.99
2022-10-17T03:48:11.649Z,99.99
2022-10-17T03:49:11.640Z,99.99
2022-10-17T03:50:11.617Z,99.99
2022-10-17T03:51:11.638Z,99.99
2022-10-17T03:52:11.597Z,99.99
2022-10-17T03:53:11.591Z,99.99
2022-10-17T03:54:11.584Z,99.99
2022-10-17T03:55:11.568Z,99.99
2022-10-17T03:56:11.569Z,99.99
2022-10-17T03:57:11.549Z,99.99
2022-10-17T03:58:11.561Z,99.99
2022-10-17T03:59:11.544Z,99.99
2022-10-17T04:00:11.512Z,99.99
2022-10-17T04:01:11.604Z,99.99
2022-10-17T04:02:11.530Z,99.99
2022-10-17T04:03:16.379Z,99.99
2022-10-17T04:04:12.483Z,99.99
2022-10-17T04:05:11.460Z,99.99
2022-10-17T04:06:11.451Z,99.99
2022-10-17T04:07:11.428Z,99.99
2022-10-17T04:08:11.446Z,99.99
2022-10-17T04:09:11.455Z,99.99
2022-10-17T04:10:11.420Z,99.99
2022-10-17T04:11:11.389Z,99.99
2022-10-17T04:12:11.387Z,99.99
2022-10-17T04:13:11.366Z,99.99
2022-10-17T04:14:11.386Z,99.99
2022-10-17T04:15:11.386Z,99.99
2022-10-17T04:16:11.337Z,99.99
2022-10-17T04:17:11.353Z,99.99
2022-10-17T04:18:11.380Z,99.99
2022-10-17T04:19:11.326Z,99.99
2022-10-17T04:20:11.313Z,99.99
2022-10-17T04:21:11.287Z,99.99
2022-10-17T04:22:11.285Z,99.99
2022-10-17T04:23:11.260Z,99.99
2022-10-17T04:24:11.273Z,99.99
2022-10-17T04:25:11.272Z,99.99
2022-10-17T04:26:11.230Z,99.99
2022-10-17T04:27:11.212Z,99.99
2022-10-17T04:28:11.211Z,99.99
2022-10-17T04:29:11.208Z,99.99
2022-10-17T04:30:11.190Z,99.99
2022-10-17T04:31:11.187Z,99.99
2022-10-17T04:32:11.162Z,99.99
2022-10-17T04:33:11.174Z,99.99
2022-10-17T04:34:11.141Z,99.99
2022-10-17T04:35:11.157Z,99.99
2022-10-17T04:36:11.123Z,99.99
2022-10-17T04:37:11.112Z,99.99
2022-10-17T04:38:11.102Z,99.99
2022-10-17T04:39:11.205Z,99.99
2022-10-17T04:40:11.094Z,99.99
2022-10-17T04:41:11.107Z,99.99
2022-10-17T04:42:11.052Z,99.99
2022-10-17T04:43:11.040Z,99.99
2022-10-17T04:44:11.020Z,99.99
2022-10-17T04:45:11.020Z,99.99
2022-10-17T04:46:11.011Z,99.99
2022-10-17T04:47:11.017Z,99.99
2022-10-17T04:48:10.978Z,99.99
2022-10-17T04:49:10.989Z,99.99
2022-10-17T04:50:10.956Z,99.99
2022-10-17T04:51:11.052Z,99.99
2022-10-17T04:52:10.951Z,99.99
2022-10-17T04:53:10.929Z,99.99
2022-10-17T04:54:10.929Z,99.99
2022-10-17T04:55:10.910Z,99.99
2022-10-17T04:56:10.922Z,99.99
2022-10-17T04:57:10.901Z,99.99
2022-10-17T04:58:10.882Z,99.99
2022-10-17T04:59:10.878Z,99.99
2022-10-17T05:00:10.867Z,99.99
2022-10-17T05:01:10.969Z,99.99
2022-10-17T05:02:10.834Z,99.99
2022-10-17T05:03:10.845Z,99.99
2022-10-17T05:04:10.838Z,99.99
2022-10-17T05:05:10.817Z,99.99
2022-10-17T05:06:10.864Z,99.99
2022-10-17T05:07:10.774Z,99.99
2022-10-17T05:08:10.796Z,99.99
2022-10-17T05:09:10.758Z,99.99
2022-10-17T05:10:10.763Z,99.99
2022-10-17T05:11:18.551Z,99.99
2022-10-17T05:12:10.859Z,99.99
2022-10-17T05:13:10.810Z,99.99
2022-10-17T05:14:10.830Z,99.99
2022-10-17T05:15:10.742Z,99.99
2022-10-17T05:16:10.717Z,99.99
2022-10-17T05:17:20.412Z,99.99
2022-10-17T05:19:23.082Z,99.99
2022-10-17T05:20:33.748Z,99.99
2022-10-17T05:21:23.208Z,99.99
2022-10-17T05:22:23.127Z,99.99
2022-10-17T05:23:23.133Z,99.99
2022-10-17T05:24:23.077Z,99.99
2022-10-17T05:25:23.013Z,99.99
2022-10-17T05:26:22.942Z,99.99
2022-10-17T05:27:22.965Z,99.99
2022-10-17T05:28:22.999Z,99.99
2022-10-17T05:29:22.899Z,99.99
2022-10-17T05:30:22.908Z,99.99
2022-10-17T05:31:22.890Z,99.99
2022-10-17T05:32:22.908Z,99.99
2022-10-17T05:33:22.903Z,99.99
2022-10-17T05:34:22.851Z,99.99
2022-10-17T05:35:22.854Z,99.99
2022-10-17T05:36:22.850Z,99.99
2022-10-17T05:37:22.829Z,99.99
2022-10-17T05:38:22.819Z,99.99
2022-10-17T05:39:22.829Z,99.99
2022-10-17T05:40:22.810Z,99.99
2022-10-17T05:41:22.822Z,99.99
2022-10-17T05:42:22.813Z,99.99
2022-10-17T05:43:22.767Z,99.99
2022-10-17T05:44:22.760Z,99.99
2022-10-17T05:45:22.744Z,99.99
2022-10-17T05:46:22.740Z,99.99
2022-10-17T05:47:22.735Z,99.99
2022-10-17T05:48:22.711Z,99.99
2022-10-17T05:49:40.023Z,99.99
2022-10-17T05:50:23.736Z,99.99
2022-10-17T05:51:22.702Z,99.99
2022-10-17T05:52:22.684Z,99.99
2022-10-17T05:53:22.676Z,99.99
2022-10-17T05:54:22.645Z,99.99
2022-10-17T05:55:22.638Z,99.99
2022-10-17T05:56:22.649Z,99.99
2022-10-17T05:57:22.648Z,99.99
2022-10-17T05:58:45.499Z,99.99
2022-10-17T05:59:23.582Z,99.99
2022-10-17T06:00:22.632Z,99.99
2022-10-17T06:01:22.602Z,99.99
2022-10-17T06:02:22.631Z,99.99
2022-10-17T06:03:31.392Z,99.99
2022-10-17T06:04:22.737Z,99.99
2022-10-17T06:05:22.616Z,99.99
2022-10-17T06:06:22.736Z,99.99
2022-10-17T06:07:22.589Z,99.99
2022-10-17T06:08:22.546Z,99.99
2022-10-17T06:09:22.524Z,99.99
2022-10-17T06:10:22.517Z,99.99
2022-10-17T06:11:22.530Z,99.99
2022-10-17T06:12:22.491Z,99.99
2022-10-17T06:13:22.461Z,99.99
2022-10-17T06:14:22.476Z,99.99
2022-10-17T06:15:22.423Z,99.99
2022-10-17T06:16:22.402Z,99.99
2022-10-17T06:17:22.396Z,99.99
2022-10-17T06:18:22.421Z,99.99
2022-10-17T06:19:22.428Z,99.99
2022-10-17T06:20:22.362Z,99.99
2022-10-17T06:21:22.458Z,99.99
2022-10-17T06:22:22.348Z,99.99
2022-10-17T06:23:22.343Z,99.99
2022-10-17T06:24:22.391Z,99.99
2022-10-17T06:25:22.310Z,99.99
2022-10-17T06:26:22.315Z,99.99
2022-10-17T06:27:22.310Z,99.99
2022-10-17T06:28:22.376Z,99.99
2022-10-17T06:29:22.315Z,99.99
2022-10-17T06:30:22.325Z,99.99
2022-10-17T06:31:22.283Z,99.99
2022-10-17T06:32:22.252Z,99.99
2022-10-17T06:33:22.237Z,99.99
2022-10-17T06:34:22.286Z,99.99
2022-10-17T06:35:22.238Z,99.99
2022-10-17T06:36:22.226Z,99.99
2022-10-17T06:37:22.230Z,99.99
2022-10-17T06:38:31.471Z,99.99
2022-10-17T06:39:22.372Z,99.99
2022-10-17T06:40:22.245Z,99.99
2022-10-17T06:41:22.285Z,99.99
2022-10-17T06:42:22.224Z,99.99
2022-10-17T06:43:26.940Z,99.99
2022-10-17T06:44:23.109Z,99.99
2022-10-17T06:45:22.098Z,99.99
2022-10-17T06:46:22.162Z,99.99
2022-10-17T06:47:22.115Z,99.99
2022-10-17T06:48:22.077Z,99.99
2022-10-17T06:49:30.732Z,99.99
2022-10-17T06:50:22.184Z,99.99
2022-10-17T06:51:22.113Z,99.99
2022-10-17T06:52:22.087Z,99.99
2022-10-17T06:53:22.174Z,99.99
2022-10-17T06:54:22.025Z,99.99
2022-10-17T06:55:23.283Z,99.99
2022-10-17T06:56:22.041Z,99.99
2022-10-17T06:57:22.011Z,99.99
2022-10-17T06:58:21.970Z,99.99
2022-10-17T06:59:21.953Z,99.99
2022-10-17T07:00:21.956Z,99.99
2022-10-17T07:01:21.943Z,99.99
2022-10-17T07:02:21.935Z,99.99
2022-10-17T07:03:21.951Z,99.99
2022-10-17T07:04:21.914Z,99.99
2022-10-17T07:05:21.887Z,99.99
2022-10-17T07:06:21.914Z,99.99
2022-10-17T07:07:21.868Z,99.99
2022-10-17T07:08:21.872Z,99.99
2022-10-17T07:09:21.899Z,99.99
2022-10-17T07:10:21.852Z,99.99
2022-10-17T07:11:21.854Z,99.99
2022-10-17T07:12:21.853Z,99.99
2022-10-17T07:13:21.822Z,99.99
2022-10-17T07:14:21.799Z,99.99
2022-10-17T07:15:21.825Z,99.99
2022-10-17T07:16:21.776Z,99.99
2022-10-17T07:17:21.788Z,99.99
2022-10-17T07:18:21.757Z,99.99
2022-10-17T07:19:21.740Z,99.99
2022-10-17T07:20:21.735Z,99.99
2022-10-17T07:21:21.745Z,99.99
2022-10-17T07:22:21.730Z,99.99
2022-10-17T07:23:21.707Z,99.99
2022-10-17T07:24:21.690Z,99.71
2022-10-17T07:25:21.690Z,99.99
2022-10-17T07:26:21.722Z,99.99
2022-10-17T07:27:21.682Z,99.56
2022-10-17T07:28:21.787Z,99.66
2022-10-17T07:29:21.696Z,99.87
2022-10-17T07:30:21.694Z,99.46
2022-10-17T07:31:21.642Z,99.77
2022-10-17T07:32:21.609Z,99.32
2022-10-17T07:33:21.605Z,99.01
2022-10-17T07:34:21.576Z,99.21
2022-10-17T07:35:21.619Z,99.32
2022-10-17T07:36:21.605Z,99.41
2022-10-17T07:37:21.566Z,99.32
2022-10-17T07:38:21.571Z,98.81
2022-10-17T07:39:21.723Z,99.01
2022-10-17T07:40:21.533Z,99.27
2022-10-17T07:41:21.948Z,99.21
2022-10-17T07:42:21.602Z,98.36
2022-10-17T07:43:21.502Z,98.36
2022-10-17T07:44:21.512Z,97.85
2022-10-17T07:45:21.882Z,97.96
2022-10-17T07:46:21.469Z,97.85
2022-10-17T07:47:21.870Z,97.60
2022-10-17T07:48:23.146Z,98.05
2022-10-17T07:49:21.441Z,97.50
2022-10-17T07:50:21.619Z,97.91
2022-10-17T07:51:23.479Z,97.50
2022-10-17T07:52:23.856Z,97.40
2022-10-17T07:53:21.401Z,96.85
2022-10-17T07:54:21.393Z,96.95
2022-10-17T07:55:21.635Z,96.95
2022-10-17T07:56:21.472Z,96.25
2022-10-17T07:57:21.348Z,96.50
2022-10-17T07:58:21.365Z,96.80
2022-10-17T07:59:22.204Z,96.10
2022-10-17T08:00:27.205Z,95.90
2022-10-17T08:01:23.336Z,95.45
2022-10-17T08:02:21.297Z,95.35
2022-10-17T08:03:21.323Z,95.35
2022-10-17T08:04:21.279Z,95.04
2022-10-17T08:05:24.667Z,95.00
2022-10-17T08:06:22.137Z,94.39
2022-10-17T08:07:25.335Z,94.19
2022-10-17T08:08:22.242Z,93.59
2022-10-17T08:09:22.190Z,94.49
2022-10-17T08:10:23.792Z,93.69
2022-10-17T08:11:21.454Z,93.69
2022-10-17T08:12:22.149Z,93.79
2022-10-17T08:13:21.184Z,93.49
2022-10-17T08:14:21.173Z,93.59
2022-10-17T08:16:26.273Z,93.59
2022-10-17T08:17:21.218Z,93.29
2022-10-17T08:19:27.633Z,93.29
2022-10-17T08:22:54.186Z,93.54
2022-10-17T08:26:04.060Z,93.54
2022-10-17T08:28:21.402Z,93.40
2022-10-17T08:29:28.930Z,92.39
2022-10-17T08:30:20.295Z,92.49
2022-10-17T08:32:30.350Z,93.10
2022-10-17T08:33:30.099Z,92.75
2022-10-17T08:34:30.430Z,92.45
2022-10-17T08:35:30.762Z,92.25
2022-10-17T08:36:30.023Z,91.24
2022-10-17T08:37:35.441Z,91.85
2022-10-17T08:38:35.580Z,91.30
2022-10-17T08:39:30.282Z,91.60
2022-10-17T08:40:34.718Z,91.50
2022-10-17T08:41:30.204Z,90.79
2022-10-17T08:42:32.005Z,90.65
2022-10-17T08:43:33.294Z,90.55
2022-10-17T08:44:30.934Z,90.55
2022-10-17T08:45:29.920Z,90.81
2022-10-17T08:46:29.908Z,90.61
2022-10-17T08:47:30.129Z,90.11
2022-10-17T08:48:32.448Z,90.11
2022-10-17T08:49:29.902Z,89.50
2022-10-17T08:50:29.864Z,89.70
2022-10-17T08:51:30.766Z,89.90
2022-10-17T08:52:29.907Z,88.75
2022-10-17T08:53:32.892Z,89.15
2022-10-17T08:54:33.098Z,89.06
2022-10-17T08:55:29.857Z,88.35
2022-10-17T08:56:44.513Z,88.65
2022-10-17T08:57:31.236Z,88.55
2022-10-17T08:58:30.327Z,88.31
2022-10-17T08:59:44.298Z,88.35
2022-10-17T09:00:30.166Z,88.65
2022-10-17T09:01:29.760Z,87.85
2022-10-17T09:02:35.569Z,87.85
2022-10-17T09:03:30.450Z,88.21
2022-10-17T09:04:29.763Z,87.81
2022-10-17T09:05:34.314Z,88.41
2022-10-17T09:06:29.695Z,88.11
2022-10-17T09:07:30.089Z,88.21
2022-10-17T09:08:37.163Z,88.61
2022-10-17T09:09:32.016Z,88.61
2022-10-17T09:10:29.671Z,87.91
2022-10-17T09:11:30.380Z,87.26
2022-10-17T09:12:30.654Z,87.81
2022-10-17T09:13:29.954Z,86.96
2022-10-17T09:14:33.660Z,86.66
2022-10-17T09:15:30.268Z,86.66
2022-10-17T09:16:31.288Z,86.96
2022-10-17T09:17:33.105Z,86.52
2022-10-17T09:18:31.002Z,86.12
2022-10-17T09:19:29.566Z,86.22
2022-10-17T09:20:30.369Z,85.82
2022-10-17T09:21:32.980Z,85.72
2022-10-17T09:22:29.528Z,85.72
2022-10-17T09:23:30.494Z,85.68
2022-10-17T09:24:29.511Z,85.44
2022-10-17T09:25:33.620Z,84.07
2022-10-17T09:26:34.003Z,84.57
2022-10-17T09:27:29.733Z,85.17
2022-10-17T09:28:33.395Z,84.97
2022-10-17T09:29:41.496Z,85.24
2022-10-17T09:31:39.797Z,84.43
2022-10-17T09:32:40.737Z,84.53
2022-10-17T09:35:01.983Z,85.13
2022-10-17T09:36:01.493Z,84.19
2022-10-17T09:37:01.096Z,83.79
2022-10-17T09:38:04.164Z,83.89
2022-10-17T09:39:03.926Z,83.89
2022-10-17T09:40:00.976Z,83.45
2022-10-17T09:41:15.789Z,83.05
2022-10-17T09:42:02.097Z,82.65
2022-10-17T09:43:09.690Z,82.81
2022-10-17T09:44:01.944Z,82.41
2022-10-17T09:45:00.933Z,82.11
2022-10-17T09:46:01.229Z,81.91
2022-10-17T09:47:03.336Z,82.31
2022-10-17T09:48:02.147Z,81.71
2022-10-17T09:50:02.337Z,81.61
2022-10-17T09:51:21.749Z,81.41
2022-10-17T09:52:05.248Z,80.41
2022-10-17T09:53:08.910Z,81.81
